sensor_id;sensor_type;location;lat;lon;timestamp;temperature;humidity
44477;DHT22;30180;44.788;10.366;2023-05-10T00:00:40;20.60;72.70
44477;DHT22;30180;44.788;10.366;2023-05-10T00:03:08;20.60;72.70
44477;DHT22;30180;44.788;10.366;2023-05-10T00:05:36;20.60;72.70
44477;DHT22;30180;44.788;10.366;2023-05-10T00:08:04;20.60;72.70
44477;DHT22;30180;44.788;10.366;2023-05-10T00:10:32;20.60;72.70
44477;DHT22;30180;44.788;10.366;2023-05-10T00:13:01;20.60;72.70
44477;DHT22;30180;44.788;10.366;2023-05-10T00:15:29;20.60;72.70
44477;DHT22;30180;44.788;10.366;2023-05-10T00:17:57;20.60;72.80
44477;DHT22;30180;44.788;10.366;2023-05-10T00:20:26;20.60;72.70
44477;DHT22;30180;44.788;10.366;2023-05-10T00:22:53;20.60;72.70
44477;DHT22;30180;44.788;10.366;2023-05-10T00:25:21;20.60;72.70
44477;DHT22;30180;44.788;10.366;2023-05-10T00:27:49;20.60;72.70
44477;DHT22;30180;44.788;10.366;2023-05-10T00:30:19;20.60;72.70
44477;DHT22;30180;44.788;10.366;2023-05-10T00:32:47;20.60;72.70
44477;DHT22;30180;44.788;10.366;2023-05-10T00:35:16;20.60;72.70
44477;DHT22;30180;44.788;10.366;2023-05-10T00:37:44;20.60;72.70
44477;DHT22;30180;44.788;10.366;2023-05-10T00:40:12;20.60;72.70
44477;DHT22;30180;44.788;10.366;2023-05-10T00:42:41;20.60;72.70
44477;DHT22;30180;44.788;10.366;2023-05-10T00:45:09;20.60;72.70
44477;DHT22;30180;44.788;10.366;2023-05-10T00:47:39;20.60;72.70
44477;DHT22;30180;44.788;10.366;2023-05-10T00:50:07;20.60;72.70
44477;DHT22;30180;44.788;10.366;2023-05-10T00:52:36;20.60;72.70
44477;DHT22;30180;44.788;10.366;2023-05-10T00:55:04;20.60;72.70
44477;DHT22;30180;44.788;10.366;2023-05-10T00:57:32;20.60;72.70
44477;DHT22;30180;44.788;10.366;2023-05-10T01:00:00;20.60;72.70
44477;DHT22;30180;44.788;10.366;2023-05-10T01:02:29;20.60;72.70
44477;DHT22;30180;44.788;10.366;2023-05-10T01:04:59;20.60;72.70
44477;DHT22;30180;44.788;10.366;2023-05-10T01:07:27;20.60;72.70
44477;DHT22;30180;44.788;10.366;2023-05-10T01:09:55;20.60;72.70
44477;DHT22;30180;44.788;10.366;2023-05-10T01:12:24;20.60;72.70
44477;DHT22;30180;44.788;10.366;2023-05-10T01:14:52;20.60;72.70
44477;DHT22;30180;44.788;10.366;2023-05-10T01:17:21;20.60;72.70
44477;DHT22;30180;44.788;10.366;2023-05-10T01:19:49;20.60;72.70
44477;DHT22;30180;44.788;10.366;2023-05-10T01:22:25;20.60;72.70
44477;DHT22;30180;44.788;10.366;2023-05-10T01:25:04;20.60;72.70
44477;DHT22;30180;44.788;10.366;2023-05-10T01:33:11;20.60;72.70
44477;DHT22;30180;44.788;10.366;2023-05-10T01:35:41;20.60;72.70
44477;DHT22;30180;44.788;10.366;2023-05-10T01:38:12;20.60;72.70
44477;DHT22;30180;44.788;10.366;2023-05-10T01:40:46;20.60;72.70
44477;DHT22;30180;44.788;10.366;2023-05-10T01:43:17;20.60;72.70
44477;DHT22;30180;44.788;10.366;2023-05-10T01:45:47;20.60;72.60
44477;DHT22;30180;44.788;10.366;2023-05-10T01:48:19;20.60;72.60
44477;DHT22;30180;44.788;10.366;2023-05-10T01:50:47;20.60;72.60
44477;DHT22;30180;44.788;10.366;2023-05-10T01:53:17;20.60;72.60
44477;DHT22;30180;44.788;10.366;2023-05-10T01:55:46;20.50;72.60
44477;DHT22;30180;44.788;10.366;2023-05-10T01:58:15;20.50;72.60
44477;DHT22;30180;44.788;10.366;2023-05-10T02:00:44;20.50;72.50
44477;DHT22;30180;44.788;10.366;2023-05-10T02:03:13;20.50;72.60
44477;DHT22;30180;44.788;10.366;2023-05-10T02:05:44;20.50;72.60
44477;DHT22;30180;44.788;10.366;2023-05-10T02:08:13;20.50;72.60
44477;DHT22;30180;44.788;10.366;2023-05-10T02:10:42;20.50;72.60
44477;DHT22;30180;44.788;10.366;2023-05-10T02:13:10;20.50;72.60
44477;DHT22;30180;44.788;10.366;2023-05-10T02:15:39;20.50;72.60
44477;DHT22;30180;44.788;10.366;2023-05-10T02:18:07;20.50;72.50
44477;DHT22;30180;44.788;10.366;2023-05-10T02:20:36;20.50;72.50
44477;DHT22;30180;44.788;10.366;2023-05-10T02:23:06;20.50;72.60
44477;DHT22;30180;44.788;10.366;2023-05-10T02:25:35;20.50;72.50
44477;DHT22;30180;44.788;10.366;2023-05-10T02:28:04;20.50;72.50
44477;DHT22;30180;44.788;10.366;2023-05-10T02:30:33;20.50;72.50
44477;DHT22;30180;44.788;10.366;2023-05-10T02:33:02;20.50;72.50
44477;DHT22;30180;44.788;10.366;2023-05-10T02:35:31;20.50;72.50
44477;DHT22;30180;44.788;10.366;2023-05-10T02:38:00;20.50;72.60
44477;DHT22;30180;44.788;10.366;2023-05-10T02:40:30;20.50;72.50
44477;DHT22;30180;44.788;10.366;2023-05-10T02:42:57;20.50;72.50
44477;DHT22;30180;44.788;10.366;2023-05-10T02:45:27;20.50;72.50
44477;DHT22;30180;44.788;10.366;2023-05-10T02:47:56;20.50;72.50
44477;DHT22;30180;44.788;10.366;2023-05-10T02:50:26;20.50;72.50
44477;DHT22;30180;44.788;10.366;2023-05-10T02:52:55;20.50;72.50
44477;DHT22;30180;44.788;10.366;2023-05-10T02:55:30;20.50;72.50
44477;DHT22;30180;44.788;10.366;2023-05-10T02:58:00;20.50;72.50
44477;DHT22;30180;44.788;10.366;2023-05-10T03:00:28;20.50;72.50
44477;DHT22;30180;44.788;10.366;2023-05-10T03:02:56;20.50;72.50
44477;DHT22;30180;44.788;10.366;2023-05-10T03:05:24;20.50;72.50
44477;DHT22;30180;44.788;10.366;2023-05-10T03:07:52;20.50;72.50
44477;DHT22;30180;44.788;10.366;2023-05-10T03:10:21;20.50;73.20
44477;DHT22;30180;44.788;10.366;2023-05-10T03:12:52;20.50;72.50
44477;DHT22;30180;44.788;10.366;2023-05-10T03:15:28;20.50;72.50
44477;DHT22;30180;44.788;10.366;2023-05-10T03:18:01;20.50;72.50
44477;DHT22;30180;44.788;10.366;2023-05-10T03:20:31;20.50;72.50
44477;DHT22;30180;44.788;10.366;2023-05-10T03:23:04;20.50;72.50
44477;DHT22;30180;44.788;10.366;2023-05-10T03:25:33;20.50;72.50
44477;DHT22;30180;44.788;10.366;2023-05-10T03:28:01;20.50;72.50
44477;DHT22;30180;44.788;10.366;2023-05-10T03:30:30;20.50;72.50
44477;DHT22;30180;44.788;10.366;2023-05-10T03:33:03;20.50;72.50
44477;DHT22;30180;44.788;10.366;2023-05-10T03:35:31;20.50;72.50
44477;DHT22;30180;44.788;10.366;2023-05-10T03:37:59;20.50;72.40
44477;DHT22;30180;44.788;10.366;2023-05-10T03:40:27;20.50;72.40
44477;DHT22;30180;44.788;10.366;2023-05-10T03:42:58;20.50;72.40
44477;DHT22;30180;44.788;10.366;2023-05-10T03:45:26;20.50;72.40
44477;DHT22;30180;44.788;10.366;2023-05-10T03:47:55;20.50;72.40
44477;DHT22;30180;44.788;10.366;2023-05-10T03:50:23;20.40;72.40
44477;DHT22;30180;44.788;10.366;2023-05-10T03:52:51;20.50;72.40
44477;DHT22;30180;44.788;10.366;2023-05-10T03:55:20;20.50;72.40
44477;DHT22;30180;44.788;10.366;2023-05-10T03:57:49;20.50;72.40
44477;DHT22;30180;44.788;10.366;2023-05-10T04:00:17;20.50;72.40
44477;DHT22;30180;44.788;10.366;2023-05-10T04:02:45;20.50;72.40
44477;DHT22;30180;44.788;10.366;2023-05-10T04:05:14;20.40;72.40
44477;DHT22;30180;44.788;10.366;2023-05-10T04:07:42;20.40;72.30
44477;DHT22;30180;44.788;10.366;2023-05-10T04:10:10;20.40;72.30
44477;DHT22;30180;44.788;10.366;2023-05-10T04:12:39;20.40;72.30
44477;DHT22;30180;44.788;10.366;2023-05-10T04:15:07;20.40;72.30
44477;DHT22;30180;44.788;10.366;2023-05-10T04:17:35;20.50;72.40
44477;DHT22;30180;44.788;10.366;2023-05-10T04:20:04;20.40;72.30
44477;DHT22;30180;44.788;10.366;2023-05-10T04:22:34;20.40;72.30
44477;DHT22;30180;44.788;10.366;2023-05-10T04:25:02;20.40;72.30
44477;DHT22;30180;44.788;10.366;2023-05-10T04:27:30;20.40;72.20
44477;DHT22;30180;44.788;10.366;2023-05-10T04:29:58;20.40;72.20
44477;DHT22;30180;44.788;10.366;2023-05-10T04:32:26;20.40;72.20
44477;DHT22;30180;44.788;10.366;2023-05-10T04:34:54;20.40;72.20
44477;DHT22;30180;44.788;10.366;2023-05-10T04:37:22;20.40;72.20
44477;DHT22;30180;44.788;10.366;2023-05-10T04:39:52;20.40;72.20
44477;DHT22;30180;44.788;10.366;2023-05-10T04:42:19;20.40;72.20
44477;DHT22;30180;44.788;10.366;2023-05-10T04:44:47;20.40;72.10
44477;DHT22;30180;44.788;10.366;2023-05-10T04:47:15;20.40;72.10
44477;DHT22;30180;44.788;10.366;2023-05-10T04:49:43;20.40;72.10
44477;DHT22;30180;44.788;10.366;2023-05-10T04:52:11;20.40;72.10
44477;DHT22;30180;44.788;10.366;2023-05-10T04:54:40;20.40;72.10
44477;DHT22;30180;44.788;10.366;2023-05-10T04:57:10;20.30;72.00
44477;DHT22;30180;44.788;10.366;2023-05-10T04:59:38;20.30;72.00
44477;DHT22;30180;44.788;10.366;2023-05-10T05:02:06;20.30;71.90
44477;DHT22;30180;44.788;10.366;2023-05-10T05:04:34;20.30;71.90
44477;DHT22;30180;44.788;10.366;2023-05-10T05:07:02;20.40;72.00
44477;DHT22;30180;44.788;10.366;2023-05-10T05:09:30;20.30;71.90
44477;DHT22;30180;44.788;10.366;2023-05-10T05:11:58;20.30;71.90
44477;DHT22;30180;44.788;10.366;2023-05-10T05:14:27;20.30;72.00
44477;DHT22;30180;44.788;10.366;2023-05-10T05:16:55;20.30;72.00
44477;DHT22;30180;44.788;10.366;2023-05-10T05:19:23;20.30;72.00
44477;DHT22;30180;44.788;10.366;2023-05-10T05:21:51;20.40;72.00
44477;DHT22;30180;44.788;10.366;2023-05-10T05:24:20;20.30;71.90
44477;DHT22;30180;44.788;10.366;2023-05-10T05:26:47;20.30;71.90
44477;DHT22;30180;44.788;10.366;2023-05-10T05:29:15;20.40;72.00
44477;DHT22;30180;44.788;10.366;2023-05-10T05:31:45;20.40;72.00
44477;DHT22;30180;44.788;10.366;2023-05-10T05:34:13;20.40;72.00
44477;DHT22;30180;44.788;10.366;2023-05-10T05:36:41;20.40;72.00
44477;DHT22;30180;44.788;10.366;2023-05-10T05:39:09;20.40;72.00
44477;DHT22;30180;44.788;10.366;2023-05-10T05:41:36;20.40;72.00
44477;DHT22;30180;44.788;10.366;2023-05-10T05:44:04;20.40;72.00
44477;DHT22;30180;44.788;10.366;2023-05-10T05:46:32;20.40;71.90
44477;DHT22;30180;44.788;10.366;2023-05-10T05:49:02;20.40;71.90
44477;DHT22;30180;44.788;10.366;2023-05-10T05:51:30;20.40;71.90
44477;DHT22;30180;44.788;10.366;2023-05-10T05:53:58;20.40;71.90
44477;DHT22;30180;44.788;10.366;2023-05-10T05:56:26;20.40;72.20
44477;DHT22;30180;44.788;10.366;2023-05-10T05:58:54;20.40;71.90
44477;DHT22;30180;44.788;10.366;2023-05-10T06:01:22;20.40;71.90
44477;DHT22;30180;44.788;10.366;2023-05-10T06:03:50;20.30;71.90
44477;DHT22;30180;44.788;10.366;2023-05-10T06:06:20;20.40;71.90
44477;DHT22;30180;44.788;10.366;2023-05-10T06:08:48;20.40;71.90
44477;DHT22;30180;44.788;10.366;2023-05-10T06:11:16;20.40;71.90
44477;DHT22;30180;44.788;10.366;2023-05-10T06:13:44;20.40;71.90
44477;DHT22;30180;44.788;10.366;2023-05-10T06:16:13;20.40;71.90
44477;DHT22;30180;44.788;10.366;2023-05-10T06:18:41;20.40;71.90
44477;DHT22;30180;44.788;10.366;2023-05-10T06:21:09;20.40;71.90
44477;DHT22;30180;44.788;10.366;2023-05-10T06:23:38;20.40;71.80
44477;DHT22;30180;44.788;10.366;2023-05-10T06:26:06;20.40;71.80
44477;DHT22;30180;44.788;10.366;2023-05-10T06:28:34;20.40;71.80
44477;DHT22;30180;44.788;10.366;2023-05-10T06:31:04;20.40;71.80
44477;DHT22;30180;44.788;10.366;2023-05-10T06:33:32;20.40;71.80
44477;DHT22;30180;44.788;10.366;2023-05-10T06:36:00;20.40;71.80
44477;DHT22;30180;44.788;10.366;2023-05-10T06:38:28;20.40;71.80
44477;DHT22;30180;44.788;10.366;2023-05-10T06:40:58;20.40;71.80
44477;DHT22;30180;44.788;10.366;2023-05-10T06:43:26;20.40;71.80
44477;DHT22;30180;44.788;10.366;2023-05-10T06:45:55;20.40;71.80
44477;DHT22;30180;44.788;10.366;2023-05-10T06:48:23;20.40;71.80
44477;DHT22;30180;44.788;10.366;2023-05-10T06:50:51;20.40;71.80
44477;DHT22;30180;44.788;10.366;2023-05-10T06:53:19;20.40;71.80
44477;DHT22;30180;44.788;10.366;2023-05-10T06:55:48;20.40;71.80
44477;DHT22;30180;44.788;10.366;2023-05-10T06:58:18;20.40;71.80
44477;DHT22;30180;44.788;10.366;2023-05-10T07:00:45;20.40;71.80
44477;DHT22;30180;44.788;10.366;2023-05-10T07:03:13;20.40;71.80
44477;DHT22;30180;44.788;10.366;2023-05-10T07:05:41;20.40;71.80
44477;DHT22;30180;44.788;10.366;2023-05-10T07:08:09;20.40;71.80
44477;DHT22;30180;44.788;10.366;2023-05-10T07:10:37;20.40;71.80
44477;DHT22;30180;44.788;10.366;2023-05-10T07:13:05;20.40;71.80
44477;DHT22;30180;44.788;10.366;2023-05-10T07:15:35;20.50;71.80
44477;DHT22;30180;44.788;10.366;2023-05-10T07:18:03;20.40;71.80
44477;DHT22;30180;44.788;10.366;2023-05-10T07:20:33;20.50;71.90
44477;DHT22;30180;44.788;10.366;2023-05-10T07:23:01;20.40;71.80
44477;DHT22;30180;44.788;10.366;2023-05-10T07:25:29;20.50;71.90
44477;DHT22;30180;44.788;10.366;2023-05-10T07:27:57;20.50;71.90
44477;DHT22;30180;44.788;10.366;2023-05-10T07:30:25;20.50;71.90
44477;DHT22;30180;44.788;10.366;2023-05-10T07:32:54;20.50;71.90
44477;DHT22;30180;44.788;10.366;2023-05-10T07:35:24;20.50;71.90
44477;DHT22;30180;44.788;10.366;2023-05-10T07:37:51;20.50;71.90
44477;DHT22;30180;44.788;10.366;2023-05-10T07:40:20;20.50;71.90
44477;DHT22;30180;44.788;10.366;2023-05-10T07:42:48;20.50;71.90
44477;DHT22;30180;44.788;10.366;2023-05-10T07:45:16;20.50;71.90
44477;DHT22;30180;44.788;10.366;2023-05-10T07:47:44;20.50;71.90
44477;DHT22;30180;44.788;10.366;2023-05-10T07:50:13;20.50;71.80
44477;DHT22;30180;44.788;10.366;2023-05-10T07:52:41;20.50;71.80
44477;DHT22;30180;44.788;10.366;2023-05-10T07:55:09;20.50;71.80
44477;DHT22;30180;44.788;10.366;2023-05-10T07:57:37;20.50;71.80
44477;DHT22;30180;44.788;10.366;2023-05-10T08:00:06;20.50;71.90
44477;DHT22;30180;44.788;10.366;2023-05-10T08:02:34;20.50;71.80
44477;DHT22;30180;44.788;10.366;2023-05-10T08:05:02;20.50;71.90
44477;DHT22;30180;44.788;10.366;2023-05-10T08:07:33;20.50;71.90
44477;DHT22;30180;44.788;10.366;2023-05-10T08:10:01;20.50;71.90
44477;DHT22;30180;44.788;10.366;2023-05-10T08:12:29;20.50;71.90
44477;DHT22;30180;44.788;10.366;2023-05-10T08:14:57;20.50;71.90
44477;DHT22;30180;44.788;10.366;2023-05-10T08:17:24;20.50;71.90
44477;DHT22;30180;44.788;10.366;2023-05-10T08:19:52;20.50;71.90
44477;DHT22;30180;44.788;10.366;2023-05-10T08:22:20;20.50;71.90
44477;DHT22;30180;44.788;10.366;2023-05-10T08:24:50;20.50;71.90
44477;DHT22;30180;44.788;10.366;2023-05-10T08:27:18;20.50;71.90
44477;DHT22;30180;44.788;10.366;2023-05-10T08:29:46;20.50;71.90
44477;DHT22;30180;44.788;10.366;2023-05-10T08:32:16;20.50;71.90
44477;DHT22;30180;44.788;10.366;2023-05-10T08:34:44;20.50;71.90
44477;DHT22;30180;44.788;10.366;2023-05-10T08:37:12;20.50;71.90
44477;DHT22;30180;44.788;10.366;2023-05-10T08:39:40;20.50;71.90
44477;DHT22;30180;44.788;10.366;2023-05-10T08:42:09;20.50;71.90
44477;DHT22;30180;44.788;10.366;2023-05-10T08:44:37;20.50;72.00
44477;DHT22;30180;44.788;10.366;2023-05-10T08:47:05;20.50;72.00
44477;DHT22;30180;44.788;10.366;2023-05-10T08:49:34;20.50;72.00
44477;DHT22;30180;44.788;10.366;2023-05-10T08:52:02;20.50;72.00
44477;DHT22;30180;44.788;10.366;2023-05-10T08:54:32;20.50;72.00
44477;DHT22;30180;44.788;10.366;2023-05-10T08:57:00;20.40;71.90
44477;DHT22;30180;44.788;10.366;2023-05-10T08:59:30;20.50;72.00
44477;DHT22;30180;44.788;10.366;2023-05-10T09:01:59;20.50;72.00
44477;DHT22;30180;44.788;10.366;2023-05-10T09:04:28;20.50;72.00
44477;DHT22;30180;44.788;10.366;2023-05-10T09:06:57;20.50;72.00
44477;DHT22;30180;44.788;10.366;2023-05-10T09:09:25;20.50;72.10
44477;DHT22;30180;44.788;10.366;2023-05-10T09:11:53;20.50;72.00
44477;DHT22;30180;44.788;10.366;2023-05-10T09:14:21;20.50;72.00
44477;DHT22;30180;44.788;10.366;2023-05-10T09:16:52;20.50;72.00
44477;DHT22;30180;44.788;10.366;2023-05-10T09:19:20;20.50;72.00
44477;DHT22;30180;44.788;10.366;2023-05-10T09:21:48;20.50;72.00
44477;DHT22;30180;44.788;10.366;2023-05-10T09:24:16;20.50;72.00
44477;DHT22;30180;44.788;10.366;2023-05-10T09:26:47;20.40;72.00
44477;DHT22;30180;44.788;10.366;2023-05-10T09:29:16;20.50;72.00
44477;DHT22;30180;44.788;10.366;2023-05-10T09:31:44;20.50;72.00
44477;DHT22;30180;44.788;10.366;2023-05-10T09:34:17;20.50;72.10
44477;DHT22;30180;44.788;10.366;2023-05-10T09:36:52;20.50;72.00
44477;DHT22;30180;44.788;10.366;2023-05-10T09:39:20;20.50;72.10
44477;DHT22;30180;44.788;10.366;2023-05-10T09:41:48;20.50;72.10
44477;DHT22;30180;44.788;10.366;2023-05-10T09:44:17;20.50;72.10
44477;DHT22;30180;44.788;10.366;2023-05-10T09:46:49;20.50;72.20
44477;DHT22;30180;44.788;10.366;2023-05-10T09:49:20;20.50;72.10
44477;DHT22;30180;44.788;10.366;2023-05-10T09:51:56;20.50;72.10
44477;DHT22;30180;44.788;10.366;2023-05-10T09:54:27;20.40;72.00
44477;DHT22;30180;44.788;10.366;2023-05-10T09:56:54;20.50;72.10
44477;DHT22;30180;44.788;10.366;2023-05-10T09:59:24;20.50;72.10
44477;DHT22;30180;44.788;10.366;2023-05-10T10:01:52;20.40;72.00
44477;DHT22;30180;44.788;10.366;2023-05-10T10:04:22;20.50;72.10
44477;DHT22;30180;44.788;10.366;2023-05-10T10:06:58;20.40;72.00
44477;DHT22;30180;44.788;10.366;2023-05-10T10:09:27;20.50;72.10
44477;DHT22;30180;44.788;10.366;2023-05-10T10:11:55;20.50;72.20
44477;DHT22;30180;44.788;10.366;2023-05-10T10:14:23;20.40;72.10
44477;DHT22;30180;44.788;10.366;2023-05-10T10:16:51;20.50;72.10
44477;DHT22;30180;44.788;10.366;2023-05-10T10:19:35;20.40;72.00
44477;DHT22;30180;44.788;10.366;2023-05-10T10:22:04;20.50;72.10
44477;DHT22;30180;44.788;10.366;2023-05-10T10:24:32;20.40;72.10
44477;DHT22;30180;44.788;10.366;2023-05-10T10:27:03;20.50;72.10
44477;DHT22;30180;44.788;10.366;2023-05-10T10:29:34;20.50;72.10
44477;DHT22;30180;44.788;10.366;2023-05-10T10:32:06;20.50;72.10
44477;DHT22;30180;44.788;10.366;2023-05-10T10:34:38;20.50;72.10
44477;DHT22;30180;44.788;10.366;2023-05-10T10:37:07;20.50;72.10
44477;DHT22;30180;44.788;10.366;2023-05-10T10:39:35;20.50;72.10
44477;DHT22;30180;44.788;10.366;2023-05-10T10:42:03;20.40;72.10
44477;DHT22;30180;44.788;10.366;2023-05-10T10:44:38;20.50;72.10
44477;DHT22;30180;44.788;10.366;2023-05-10T10:47:10;20.50;72.20
44477;DHT22;30180;44.788;10.366;2023-05-10T10:50:02;20.40;72.10
44477;DHT22;30180;44.788;10.366;2023-05-10T10:52:30;20.40;72.10
44477;DHT22;30180;44.788;10.366;2023-05-10T10:55:00;20.50;72.20
44477;DHT22;30180;44.788;10.366;2023-05-10T10:57:31;20.40;72.10
44477;DHT22;30180;44.788;10.366;2023-05-10T11:02:46;20.50;72.20
44477;DHT22;30180;44.788;10.366;2023-05-10T11:08:25;20.40;72.10
44477;DHT22;30180;44.788;10.366;2023-05-10T11:11:04;20.40;72.20
44477;DHT22;30180;44.788;10.366;2023-05-10T11:13:34;20.40;72.10
44477;DHT22;30180;44.788;10.366;2023-05-10T11:16:12;20.40;72.20
44477;DHT22;30180;44.788;10.366;2023-05-10T11:18:41;20.50;72.20
44477;DHT22;30180;44.788;10.366;2023-05-10T11:21:19;20.40;72.10
44477;DHT22;30180;44.788;10.366;2023-05-10T11:23:50;20.40;72.20
44477;DHT22;30180;44.788;10.366;2023-05-10T11:26:18;20.40;72.10
44477;DHT22;30180;44.788;10.366;2023-05-10T11:28:49;20.40;72.20
44477;DHT22;30180;44.788;10.366;2023-05-10T11:31:18;20.40;72.20
44477;DHT22;30180;44.788;10.366;2023-05-10T11:33:46;20.40;72.20
44477;DHT22;30180;44.788;10.366;2023-05-10T11:36:15;20.40;72.20
44477;DHT22;30180;44.788;10.366;2023-05-10T11:38:43;20.40;72.20
44477;DHT22;30180;44.788;10.366;2023-05-10T11:41:13;20.40;72.20
44477;DHT22;30180;44.788;10.366;2023-05-10T11:43:41;20.40;72.20
44477;DHT22;30180;44.788;10.366;2023-05-10T11:46:10;20.40;72.20
44477;DHT22;30180;44.788;10.366;2023-05-10T11:48:38;20.40;72.20
44477;DHT22;30180;44.788;10.366;2023-05-10T11:51:06;20.40;72.20
44477;DHT22;30180;44.788;10.366;2023-05-10T11:53:35;20.40;72.20
44477;DHT22;30180;44.788;10.366;2023-05-10T11:56:03;20.40;72.20
44477;DHT22;30180;44.788;10.366;2023-05-10T11:58:33;20.40;72.20
44477;DHT22;30180;44.788;10.366;2023-05-10T12:01:01;20.40;72.20
44477;DHT22;30180;44.788;10.366;2023-05-10T12:03:30;20.40;72.20
44477;DHT22;30180;44.788;10.366;2023-05-10T12:05:59;20.40;72.20
44477;DHT22;30180;44.788;10.366;2023-05-10T12:08:28;20.40;72.20
44477;DHT22;30180;44.788;10.366;2023-05-10T12:11:04;20.40;72.20
44477;DHT22;30180;44.788;10.366;2023-05-10T12:13:36;20.40;72.20
44477;DHT22;30180;44.788;10.366;2023-05-10T12:16:12;20.40;72.20
44477;DHT22;30180;44.788;10.366;2023-05-10T12:18:40;20.40;72.20
44477;DHT22;30180;44.788;10.366;2023-05-10T12:21:09;20.40;72.20
44477;DHT22;30180;44.788;10.366;2023-05-10T12:23:37;20.40;72.20
44477;DHT22;30180;44.788;10.366;2023-05-10T12:26:05;20.40;72.20
44477;DHT22;30180;44.788;10.366;2023-05-10T12:28:35;20.40;72.20
44477;DHT22;30180;44.788;10.366;2023-05-10T12:31:03;20.40;72.20
44477;DHT22;30180;44.788;10.366;2023-05-10T12:33:37;20.40;72.20
44477;DHT22;30180;44.788;10.366;2023-05-10T12:36:08;20.40;72.20
44477;DHT22;30180;44.788;10.366;2023-05-10T12:38:37;20.40;72.20
44477;DHT22;30180;44.788;10.366;2023-05-10T12:41:06;20.40;72.20
44477;DHT22;30180;44.788;10.366;2023-05-10T12:43:36;20.40;72.20
44477;DHT22;30180;44.788;10.366;2023-05-10T12:46:04;20.40;72.20
44477;DHT22;30180;44.788;10.366;2023-05-10T12:48:32;20.40;72.20
44477;DHT22;30180;44.788;10.366;2023-05-10T12:51:00;20.40;72.20
44477;DHT22;30180;44.788;10.366;2023-05-10T12:53:28;20.30;72.10
44477;DHT22;30180;44.788;10.366;2023-05-10T12:55:56;20.30;72.10
44477;DHT22;30180;44.788;10.366;2023-05-10T12:58:24;20.30;72.10
44477;DHT22;30180;44.788;10.366;2023-05-10T13:01:02;20.40;72.20
44477;DHT22;30180;44.788;10.366;2023-05-10T13:03:31;20.30;72.10
44477;DHT22;30180;44.788;10.366;2023-05-10T13:05:59;20.30;72.10
44477;DHT22;30180;44.788;10.366;2023-05-10T13:08:27;20.30;72.10
44477;DHT22;30180;44.788;10.366;2023-05-10T13:11:00;20.30;72.20
44477;DHT22;30180;44.788;10.366;2023-05-10T13:13:28;20.30;72.20
44477;DHT22;30180;44.788;10.366;2023-05-10T13:15:56;20.30;72.20
44477;DHT22;30180;44.788;10.366;2023-05-10T13:18:25;20.40;72.20
44477;DHT22;30180;44.788;10.366;2023-05-10T13:20:53;20.40;72.30
44477;DHT22;30180;44.788;10.366;2023-05-10T13:23:22;20.30;72.20
44477;DHT22;30180;44.788;10.366;2023-05-10T13:25:50;20.40;72.30
44477;DHT22;30180;44.788;10.366;2023-05-10T13:28:18;20.40;72.30
44477;DHT22;30180;44.788;10.366;2023-05-10T13:30:46;20.30;72.20
44477;DHT22;30180;44.788;10.366;2023-05-10T13:33:14;20.40;72.30
44477;DHT22;30180;44.788;10.366;2023-05-10T13:35:43;20.40;72.30
44477;DHT22;30180;44.788;10.366;2023-05-10T13:38:12;20.40;72.30
44477;DHT22;30180;44.788;10.366;2023-05-10T13:40:40;20.40;72.30
44477;DHT22;30180;44.788;10.366;2023-05-10T13:43:08;20.40;72.30
44477;DHT22;30180;44.788;10.366;2023-05-10T13:45:36;20.30;72.20
44477;DHT22;30180;44.788;10.366;2023-05-10T13:48:05;20.40;72.30
44477;DHT22;30180;44.788;10.366;2023-05-10T13:50:33;20.40;72.30
44477;DHT22;30180;44.788;10.366;2023-05-10T13:53:02;20.30;72.20
44477;DHT22;30180;44.788;10.366;2023-05-10T13:55:30;20.40;72.30
44477;DHT22;30180;44.788;10.366;2023-05-10T13:57:58;20.30;72.20
44477;DHT22;30180;44.788;10.366;2023-05-10T14:00:26;20.40;72.90
44477;DHT22;30180;44.788;10.366;2023-05-10T14:02:54;20.40;72.30
44477;DHT22;30180;44.788;10.366;2023-05-10T14:05:22;20.30;72.30
44477;DHT22;30180;44.788;10.366;2023-05-10T14:07:52;20.30;72.20
44477;DHT22;30180;44.788;10.366;2023-05-10T14:10:21;20.30;72.30
44477;DHT22;30180;44.788;10.366;2023-05-10T14:12:49;20.40;72.30
44477;DHT22;30180;44.788;10.366;2023-05-10T14:15:17;20.40;72.30
44477;DHT22;30180;44.788;10.366;2023-05-10T14:17:45;20.30;72.30
44477;DHT22;30180;44.788;10.366;2023-05-10T14:20:13;20.40;72.30
44477;DHT22;30180;44.788;10.366;2023-05-10T14:22:41;20.40;72.30
44477;DHT22;30180;44.788;10.366;2023-05-10T14:25:09;20.40;72.40
44477;DHT22;30180;44.788;10.366;2023-05-10T14:27:39;20.40;72.30
44477;DHT22;30180;44.788;10.366;2023-05-10T14:30:07;20.40;72.40
44477;DHT22;30180;44.788;10.366;2023-05-10T14:32:35;20.40;72.30
44477;DHT22;30180;44.788;10.366;2023-05-10T14:35:04;20.40;72.40
44477;DHT22;30180;44.788;10.366;2023-05-10T14:37:36;20.40;72.30
44477;DHT22;30180;44.788;10.366;2023-05-10T14:40:04;20.30;72.30
44477;DHT22;30180;44.788;10.366;2023-05-10T14:42:33;20.30;72.30
44477;DHT22;30180;44.788;10.366;2023-05-10T14:45:03;20.30;72.30
44477;DHT22;30180;44.788;10.366;2023-05-10T14:47:31;20.30;72.30
44477;DHT22;30180;44.788;10.366;2023-05-10T14:49:59;20.30;72.30
44477;DHT22;30180;44.788;10.366;2023-05-10T14:52:27;20.30;72.30
44477;DHT22;30180;44.788;10.366;2023-05-10T14:54:57;20.30;72.30
44477;DHT22;30180;44.788;10.366;2023-05-10T14:57:27;20.30;72.30
44477;DHT22;30180;44.788;10.366;2023-05-10T14:59:56;20.30;72.30
44477;DHT22;30180;44.788;10.366;2023-05-10T15:02:26;20.30;72.30
44477;DHT22;30180;44.788;10.366;2023-05-10T15:04:54;20.30;72.30
44477;DHT22;30180;44.788;10.366;2023-05-10T15:07:22;20.30;72.30
44477;DHT22;30180;44.788;10.366;2023-05-10T15:09:50;20.30;72.90
44477;DHT22;30180;44.788;10.366;2023-05-10T15:12:18;20.30;72.30
44477;DHT22;30180;44.788;10.366;2023-05-10T15:14:46;20.30;72.30
44477;DHT22;30180;44.788;10.366;2023-05-10T15:17:14;20.30;72.30
44477;DHT22;30180;44.788;10.366;2023-05-10T15:19:44;20.30;72.30
44477;DHT22;30180;44.788;10.366;2023-05-10T15:22:12;20.30;72.30
44477;DHT22;30180;44.788;10.366;2023-05-10T15:24:40;20.30;72.30
44477;DHT22;30180;44.788;10.366;2023-05-10T15:27:07;20.30;72.30
44477;DHT22;30180;44.788;10.366;2023-05-10T15:29:35;20.30;72.30
44477;DHT22;30180;44.788;10.366;2023-05-10T15:32:03;20.30;72.30
44477;DHT22;30180;44.788;10.366;2023-05-10T15:34:31;20.30;72.40
44477;DHT22;30180;44.788;10.366;2023-05-10T15:37:03;20.30;72.30